15:05
Airports
History
Links
Donate
Help keep this website running!
PayPal
Bitcoin
This page is community maintained. The information is intended for PC simulator navigation or reference.
Always use approved charts for navigation.
SDEN
Costa Esmeralda
Costa Esmeralda (SDEN)
Tijucas, Santa Catarina, Brazil (88200)
4
Lat/Lng:27° 9' 59" S / 48° 37' 21" W
-27.166389 / -48.6225
Elevation:16'ft / 5mMSL
ID / ICAO:SDEN
Runways:1
Longest:14-32
Grass 1,223m / 4,013ft
Nearby Weather15:00 GMT 2017-11-23
Nearby weather at SBFL, Hercillo Luz located 35.1 nautical miles from SDEN
Altimeter: 30.00
Visibility: 6.2 statute miles
Wind: 10 knots (from 350°)
Temp: 23°c / 73°f
Humidity: 53.3%

METAR: SBFL 231500Z 35010KT 9999 FEW040 BKN050 23/13 Q1016

(Powered by phpweather)
Runway 14 / 32
Dimensions:1223.1 x 22.9m 4013' x 75'ft
Surface:Grass
Runway 14 [A]Runway 32 [B]
Heading:124°TH 304°TH
Lat:
Lng:
27° 9' 47.82"S
48° 37' 39.25"W
27° 10' 10.18"S
48° 37' 2.75"W
User Notes and Comments
27° 9' 59" S / 48° 37' 21" W
Distance To
Airport ID:
Nearby Airports
4 Aeroportobelo 0.7 NM
SDYS SW 226°
4 Sonhar 14.1 NM
SJSH S 177°
4 Itajai - Campo Comandantes 17.4 NM
SIJY NW 316°
(C) Ministro Victor Konder 19.9 NM
SBNF N 354°
(U) Aeroclube de Santa Catarina 30.9 NM
SSKT S 185°
(C) Hercillo Luz 35.1 NM
SBFL ( WX ) S 172°
(C) Blumenau 37.0 NM
SSBL NW 308°
VFR Chart
Flight Planning at SkyVector.com